createdAt,value
2023-04-21T00:00:49.104Z,70.40
2023-04-21T00:03:56.320Z,71.27
2023-04-21T00:07:04.086Z,71.11
2023-04-21T00:10:13.261Z,71.47
2023-04-21T00:13:21.340Z,71.85
2023-04-21T00:16:31.000Z,71.82
2023-04-21T00:19:36.950Z,72.10
2023-04-21T00:22:44.028Z,72.14
2023-04-21T00:25:49.906Z,72.51
2023-04-21T00:28:56.757Z,72.12
2023-04-21T00:32:08.760Z,72.23
2023-04-21T00:35:16.421Z,72.45
2023-04-21T00:38:22.323Z,72.67
2023-04-21T00:41:32.073Z,72.58
2023-04-21T00:44:44.616Z,73.39
2023-04-21T00:47:54.128Z,73.00
2023-04-21T00:51:00.295Z,72.99
2023-04-21T00:54:10.435Z,73.41
2023-04-21T00:57:17.004Z,73.63
2023-04-21T01:00:24.028Z,73.99
2023-04-21T01:03:34.758Z,74.34
2023-04-21T01:06:45.817Z,74.70
2023-04-21T01:09:55.324Z,74.41
2023-04-21T01:13:03.630Z,74.43
2023-04-21T01:16:11.357Z,74.58
2023-04-21T01:19:20.966Z,74.34
2023-04-21T01:22:36.003Z,74.65
2023-04-21T01:25:42.784Z,75.11
2023-04-21T01:28:49.496Z,75.52
2023-04-21T01:31:56.316Z,75.10
2023-04-21T01:35:04.584Z,75.01
2023-04-21T01:38:14.531Z,73.99
2023-04-21T01:41:22.143Z,73.55
2023-04-21T01:44:35.460Z,73.33
2023-04-21T01:47:41.575Z,72.90
2023-04-21T01:50:56.330Z,73.66
2023-04-21T01:54:09.155Z,73.51
2023-04-21T01:57:16.071Z,74.20
2023-04-21T02:00:22.601Z,74.70
2023-04-21T02:03:29.700Z,74.89
2023-04-21T02:06:36.511Z,74.92
2023-04-21T02:09:46.406Z,74.91
2023-04-21T02:12:53.990Z,74.87
2023-04-21T02:16:12.881Z,74.62
2023-04-21T02:19:27.325Z,74.72
2023-04-21T02:22:34.847Z,74.38
2023-04-21T02:25:45.069Z,75.06
2023-04-21T02:28:52.743Z,74.90
2023-04-21T02:32:05.146Z,74.39
2023-04-21T02:35:17.920Z,74.36
2023-04-21T02:38:23.732Z,73.48
2023-04-21T02:41:33.164Z,73.07
2023-04-21T02:44:41.217Z,73.33
2023-04-21T02:47:48.010Z,72.99
2023-04-21T02:50:56.756Z,72.82
2023-04-21T02:54:05.192Z,73.12
2023-04-21T02:57:13.709Z,73.06
2023-04-21T03:00:21.333Z,72.44
2023-04-21T03:03:27.364Z,71.98
2023-04-21T03:06:37.241Z,72.44
2023-04-21T03:09:45.224Z,72.67
2023-04-21T03:12:54.705Z,72.47
2023-04-21T03:16:00.813Z,72.52
2023-04-21T03:19:07.676Z,71.38
2023-04-21T03:22:16.050Z,72.14
2023-04-21T03:25:30.438Z,72.31
2023-04-21T03:28:49.830Z,72.66
2023-04-21T03:32:06.182Z,72.53
2023-04-21T03:35:12.312Z,72.29
2023-04-21T03:38:19.077Z,72.16
2023-04-21T03:41:25.349Z,71.87
2023-04-21T03:44:34.967Z,71.71
2023-04-21T03:47:41.319Z,72.04
2023-04-21T03:50:48.119Z,72.26
2023-04-21T03:53:54.168Z,72.37
2023-04-21T03:57:00.812Z,71.91
2023-04-21T04:00:13.078Z,71.98
2023-04-21T04:03:21.900Z,72.05
2023-04-21T04:06:29.842Z,72.06
2023-04-21T04:09:36.551Z,72.32
2023-04-21T04:12:42.574Z,72.57
2023-04-21T04:15:51.973Z,72.34
2023-04-21T04:18:58.155Z,72.58
2023-04-21T04:22:07.962Z,72.32
2023-04-21T04:25:21.436Z,72.23
2023-04-21T04:28:29.203Z,72.21
2023-04-21T04:31:38.132Z,72.20
2023-04-21T04:34:44.920Z,71.65
2023-04-21T04:37:51.084Z,70.23
2023-04-21T04:40:59.271Z,68.60
2023-04-21T04:44:05.336Z,67.56
2023-04-21T04:47:15.400Z,66.01
2023-04-21T04:50:21.661Z,64.57
2023-04-21T04:53:28.616Z,62.86
2023-04-21T04:56:41.448Z,61.00
2023-04-21T04:59:57.351Z,59.52
2023-04-21T05:03:06.489Z,58.06
2023-04-21T05:06:14.393Z,56.58
2023-04-21T05:09:26.500Z,54.57
2023-04-21T05:12:38.157Z,51.08
2023-04-21T05:15:47.485Z,50.60
2023-04-21T05:18:56.968Z,49.78
2023-04-21T05:22:06.733Z,47.86
2023-04-21T05:25:16.206Z,46.05
2023-04-21T05:28:23.483Z,44.32
2023-04-21T05:31:30.639Z,44.22
2023-04-21T05:34:39.400Z,41.58
2023-04-21T05:37:46.184Z,40.00
2023-04-21T05:40:58.096Z,40.28
2023-04-21T05:44:04.953Z,39.66
2023-04-21T05:47:11.194Z,39.23
2023-04-21T05:50:20.693Z,39.68
2023-04-21T05:53:27.854Z,38.54
2023-04-21T05:56:34.659Z,38.65
2023-04-21T05:59:40.721Z,37.64
2023-04-21T06:02:47.580Z,35.67
2023-04-21T06:06:00.643Z,34.41
2023-04-21T06:09:10.249Z,33.07
2023-04-21T06:12:16.208Z,34.38
2023-04-21T06:15:22.942Z,32.83
2023-04-21T06:18:30.685Z,32.62
2023-04-21T06:21:40.038Z,32.52
2023-04-21T06:24:46.113Z,31.99
2023-04-21T06:27:52.850Z,33.09
2023-04-21T06:30:58.771Z,32.49
2023-04-21T06:34:05.849Z,31.87
2023-04-21T06:37:14.412Z,31.01
2023-04-21T06:40:21.474Z,31.58
2023-04-21T06:43:27.414Z,31.21
2023-04-21T06:46:34.214Z,30.92
2023-04-21T06:49:40.493Z,30.98
2023-04-21T06:52:50.019Z,30.57
2023-04-21T06:55:56.615Z,30.44
2023-04-21T06:59:03.557Z,29.10
2023-04-21T07:02:09.780Z,28.86
2023-04-21T07:05:16.582Z,29.06
2023-04-21T07:08:25.224Z,29.28
2023-04-21T07:11:32.094Z,29.62
2023-04-21T07:14:37.916Z,30.23
2023-04-21T07:17:44.786Z,30.40
2023-04-21T07:20:51.789Z,30.51
2023-04-21T07:24:01.709Z,29.77
2023-04-21T07:27:07.882Z,29.64
2023-04-21T07:30:16.088Z,29.44
2023-04-21T07:33:21.989Z,29.33
2023-04-21T07:36:31.107Z,29.77
2023-04-21T07:39:39.740Z,29.78
2023-04-21T07:42:46.691Z,29.01
2023-04-21T07:45:52.865Z,28.97
2023-04-21T07:49:13.532Z,28.66
2023-04-21T07:52:34.765Z,27.98
2023-04-21T07:55:44.219Z,28.30
2023-04-21T07:58:50.154Z,28.46
2023-04-21T08:01:57.273Z,29.28
2023-04-21T08:05:03.598Z,29.71
2023-04-21T08:08:10.817Z,27.50
2023-04-21T08:11:32.443Z,25.61
2023-04-21T08:14:39.252Z,25.37
2023-04-21T08:17:45.255Z,25.03
2023-04-21T08:20:52.762Z,25.51
2023-04-21T08:23:58.750Z,24.91
2023-04-21T08:27:08.233Z,24.23
2023-04-21T08:30:16.622Z,24.41
2023-04-21T08:33:23.595Z,24.64
2023-04-21T08:36:30.354Z,24.88
2023-04-21T08:39:37.549Z,24.82
2023-04-21T08:42:46.327Z,26.59
2023-04-21T08:45:55.656Z,25.98
2023-04-21T08:49:03.078Z,23.83
2023-04-21T08:52:16.965Z,24.82
2023-04-21T08:55:29.272Z,24.58
2023-04-21T08:58:39.006Z,24.96
2023-04-21T09:02:16.516Z,25.24
2023-04-21T09:05:27.486Z,25.61
2023-04-21T09:08:40.247Z,25.36
2023-04-21T09:11:53.211Z,25.48
2023-04-21T09:15:02.564Z,25.86
2023-04-21T09:18:16.053Z,26.90
2023-04-21T09:21:23.638Z,28.01
2023-04-21T09:24:34.126Z,28.73
2023-04-21T09:27:40.269Z,28.89
2023-04-21T09:30:49.645Z,28.97
2023-04-21T09:34:00.704Z,29.73
2023-04-21T09:37:18.207Z,30.43
2023-04-21T09:40:31.598Z,29.79
2023-04-21T09:43:52.317Z,30.31
2023-04-21T09:47:06.317Z,29.42
2023-04-21T09:50:17.199Z,28.97
2023-04-21T09:53:31.608Z,29.21
2023-04-21T09:56:45.726Z,29.26
2023-04-21T09:59:59.786Z,29.23
2023-04-21T10:03:11.772Z,28.97
2023-04-21T10:06:19.775Z,28.44
2023-04-21T10:09:34.680Z,27.58
2023-04-21T10:12:41.451Z,26.49
2023-04-21T10:15:48.331Z,25.75
2023-04-21T10:18:57.113Z,25.34
2023-04-21T10:22:04.071Z,23.34
2023-04-21T10:25:15.101Z,23.56
2023-04-21T10:28:25.241Z,23.40
2023-04-21T10:31:37.026Z,22.08
2023-04-21T10:34:47.066Z,23.26
2023-04-21T10:37:55.521Z,23.05
2023-04-21T10:41:34.129Z,24.30
2023-04-21T10:44:45.327Z,25.51
2023-04-21T10:47:53.067Z,26.13
2023-04-21T10:51:08.631Z,26.22
2023-04-21T10:54:21.303Z,26.83
2023-04-21T10:57:27.399Z,26.67
2023-04-21T11:00:34.806Z,27.01
2023-04-21T11:03:51.761Z,27.62
2023-04-21T11:07:15.361Z,26.75
2023-04-21T11:10:21.258Z,25.86
2023-04-21T11:13:34.008Z,23.67
2023-04-21T11:16:42.459Z,23.94
2023-04-21T11:19:52.562Z,24.05
2023-04-21T11:23:02.780Z,24.34
2023-04-21T11:26:09.552Z,23.20
2023-04-21T11:29:15.918Z,23.51
2023-04-21T11:32:22.701Z,24.24
2023-04-21T11:35:28.786Z,24.09
2023-04-21T11:38:44.898Z,24.40
2023-04-21T11:41:53.885Z,24.94
2023-04-21T11:45:01.306Z,25.13
2023-04-21T11:48:22.879Z,25.60
2023-04-21T11:51:31.791Z,25.15
2023-04-21T11:54:42.037Z,25.64
2023-04-21T11:57:49.086Z,24.05
2023-04-21T12:00:55.153Z,24.88
2023-04-21T12:04:02.069Z,24.38
2023-04-21T12:07:08.189Z,24.29
2023-04-21T12:10:21.687Z,23.98
2023-04-21T12:13:28.628Z,24.72
2023-04-21T12:16:35.560Z,24.69
2023-04-21T12:19:44.733Z,24.20
2023-04-21T12:22:52.700Z,23.61
2023-04-21T12:26:01.732Z,23.09
2023-04-21T12:29:08.524Z,24.26
2023-04-21T12:32:14.376Z,24.41
2023-04-21T12:35:35.980Z,24.09
2023-04-21T12:38:43.618Z,24.26
2023-04-21T12:41:52.991Z,25.21
2023-04-21T12:44:58.817Z,24.87
2023-04-21T12:48:07.073Z,24.81
2023-04-21T12:51:13.139Z,24.02
2023-04-21T12:54:20.665Z,23.53
2023-04-21T12:57:29.902Z,23.94
2023-04-21T13:00:36.840Z,22.41
2023-04-21T13:03:44.571Z,23.70
2023-04-21T13:06:51.782Z,23.19
2023-04-21T13:09:57.919Z,22.42
2023-04-21T13:13:07.607Z,23.25
2023-04-21T13:16:13.809Z,25.70
2023-04-21T13:19:20.844Z,27.22
2023-04-21T13:22:27.116Z,27.84
2023-04-21T13:25:34.055Z,26.92
2023-04-21T13:28:42.931Z,26.87
2023-04-21T13:31:49.904Z,27.05
2023-04-21T13:34:56.167Z,26.79
2023-04-21T13:38:02.913Z,26.04
2023-04-21T13:41:09.549Z,25.86
2023-04-21T13:44:19.090Z,26.10
2023-04-21T13:47:25.136Z,25.95
2023-04-21T13:50:32.038Z,25.60
2023-04-21T13:53:37.936Z,25.84
2023-04-21T13:56:44.845Z,26.04
2023-04-21T13:59:54.492Z,26.53
2023-04-21T14:03:01.910Z,26.44
2023-04-21T14:06:11.441Z,25.98
2023-04-21T14:09:18.682Z,26.06
2023-04-21T14:12:26.398Z,25.94
2023-04-21T14:15:36.200Z,25.92
2023-04-21T14:18:45.395Z,26.44
2023-04-21T14:21:52.177Z,26.56
2023-04-21T14:24:58.108Z,26.34
2023-04-21T14:28:07.583Z,26.02
2023-04-21T14:31:16.545Z,25.58
2023-04-21T14:34:23.426Z,25.90
2023-04-21T14:37:30.471Z,24.93
2023-04-21T14:40:37.293Z,24.85
2023-04-21T14:43:43.258Z,25.38
2023-04-21T14:47:05.602Z,24.88
2023-04-21T14:50:15.225Z,25.24
2023-04-21T14:53:22.177Z,25.68
2023-04-21T14:56:28.141Z,26.63
2023-04-21T14:59:35.289Z,26.34
2023-04-21T15:02:44.637Z,26.68
2023-04-21T15:05:51.490Z,26.60
2023-04-21T15:08:57.466Z,25.37
2023-04-21T15:12:04.321Z,25.80
2023-04-21T15:15:12.060Z,26.04
2023-04-21T15:18:21.663Z,25.68
2023-04-21T15:21:27.991Z,24.96
2023-04-21T15:24:34.896Z,25.16
2023-04-21T15:27:41.474Z,26.27
2023-04-21T15:30:48.356Z,26.96
2023-04-21T15:33:59.234Z,26.39
2023-04-21T15:37:05.981Z,26.84
2023-04-21T15:40:14.194Z,26.77
2023-04-21T15:43:22.040Z,27.07
2023-04-21T15:46:29.659Z,27.25
2023-04-21T15:49:39.296Z,27.02
2023-04-21T15:52:45.577Z,27.59
2023-04-21T15:55:52.756Z,27.41
2023-04-21T15:58:58.657Z,27.32
2023-04-21T16:02:06.372Z,27.69
2023-04-21T16:05:15.575Z,27.81
2023-04-21T16:08:22.468Z,27.63
2023-04-21T16:11:29.654Z,27.96
2023-04-21T16:14:51.255Z,27.32
2023-04-21T16:18:04.291Z,27.37
2023-04-21T16:21:13.871Z,28.23
2023-04-21T16:24:20.228Z,27.54
2023-04-21T16:27:27.133Z,27.68
2023-04-21T16:30:33.329Z,27.78
2023-04-21T16:33:40.088Z,28.24
2023-04-21T16:36:48.961Z,28.61
2023-04-21T16:40:02.863Z,28.51
2023-04-21T16:43:09.363Z,28.89
2023-04-21T16:46:22.873Z,28.81
2023-04-21T16:49:30.571Z,29.58
2023-04-21T16:52:40.149Z,28.96
2023-04-21T16:55:46.253Z,28.89
2023-04-21T16:58:58.567Z,28.86
2023-04-21T17:02:04.713Z,29.18
2023-04-21T17:05:13.062Z,29.48
2023-04-21T17:08:28.828Z,29.26
2023-04-21T17:11:37.502Z,29.45
2023-04-21T17:14:44.775Z,29.05
2023-04-21T17:17:51.656Z,29.86
2023-04-21T17:20:57.714Z,30.13
2023-04-21T17:24:07.650Z,29.95
2023-04-21T17:27:23.689Z,29.88
2023-04-21T17:30:30.440Z,29.91
2023-04-21T17:33:46.908Z,29.76
2023-04-21T17:36:53.937Z,29.67
2023-04-21T17:40:09.852Z,29.80
2023-04-21T17:43:16.829Z,30.26
2023-04-21T17:46:25.109Z,30.53
2023-04-21T17:49:32.516Z,30.69
2023-04-21T17:52:38.571Z,30.93
2023-04-21T17:55:48.109Z,31.00
2023-04-21T17:58:56.390Z,31.42
2023-04-21T18:02:16.201Z,31.62
2023-04-21T18:05:23.449Z,31.50
2023-04-21T18:08:30.388Z,31.69
2023-04-21T18:11:39.430Z,31.93
2023-04-21T18:14:46.329Z,31.78
2023-04-21T18:17:53.484Z,32.13
2023-04-21T18:21:00.571Z,32.05
2023-04-21T18:24:06.654Z,32.08
2023-04-21T18:27:17.810Z,32.73
2023-04-21T18:30:24.396Z,32.70
2023-04-21T18:33:32.066Z,33.20
2023-04-21T18:36:45.956Z,32.82
2023-04-21T18:39:52.688Z,32.62
2023-04-21T18:43:02.850Z,32.65
2023-04-21T18:46:21.831Z,32.79
2023-04-21T18:49:32.080Z,32.61
2023-04-21T18:52:38.961Z,32.93
2023-04-21T18:55:45.747Z,33.16
2023-04-21T18:58:57.008Z,33.19
2023-04-21T19:02:04.286Z,32.93
2023-04-21T19:05:12.665Z,33.01
2023-04-21T19:08:30.064Z,33.29
2023-04-21T19:11:45.279Z,33.10
2023-04-21T19:14:55.543Z,33.42
2023-04-21T19:18:02.562Z,33.55
2023-04-21T19:21:13.008Z,33.36
2023-04-21T19:24:21.606Z,33.82
2023-04-21T19:27:27.732Z,33.33
2023-04-21T19:30:37.615Z,33.24
2023-04-21T19:33:44.746Z,32.98
2023-04-21T19:36:53.225Z,33.44
2023-04-21T19:39:59.429Z,33.44
2023-04-21T19:43:09.103Z,33.58
2023-04-21T19:46:17.816Z,33.37
2023-04-21T19:49:25.205Z,33.37
2023-04-21T19:52:31.294Z,36.33
2023-04-21T19:55:38.065Z,36.38
2023-04-21T19:58:44.625Z,37.89
2023-04-21T20:02:05.246Z,38.44
2023-04-21T20:05:12.710Z,38.97
2023-04-21T20:08:24.540Z,36.19
2023-04-21T20:11:31.660Z,38.76
2023-04-21T20:14:41.955Z,37.27
2023-04-21T20:17:50.609Z,39.88
2023-04-21T20:20:57.558Z,41.27
2023-04-21T20:24:03.963Z,43.52
2023-04-21T20:27:10.758Z,43.16
2023-04-21T20:30:17.138Z,42.63
2023-04-21T20:33:28.386Z,42.89
2023-04-21T20:36:37.236Z,38.99
2023-04-21T20:39:47.189Z,38.70
2023-04-21T20:42:53.185Z,38.60
2023-04-21T20:46:00.112Z,39.83
2023-04-21T20:49:09.357Z,39.70
2023-04-21T20:52:16.328Z,39.04
2023-04-21T20:55:22.290Z,40.70
2023-04-21T20:58:28.960Z,38.91
2023-04-21T21:01:39.276Z,40.63
2023-04-21T21:04:49.530Z,40.16
2023-04-21T21:08:02.905Z,39.83
2023-04-21T21:11:15.900Z,38.94
2023-04-21T21:14:23.553Z,38.98
2023-04-21T21:17:30.412Z,38.98
2023-04-21T21:20:39.043Z,38.77
2023-04-21T21:23:45.800Z,38.56
2023-04-21T21:26:51.806Z,38.64
2023-04-21T21:29:58.571Z,38.61
2023-04-21T21:33:10.856Z,39.12
2023-04-21T21:36:20.294Z,39.00
2023-04-21T21:39:26.958Z,38.93
2023-04-21T21:42:33.672Z,38.71
2023-04-21T21:45:39.937Z,38.76
2023-04-21T21:48:46.730Z,38.91
2023-04-21T21:51:55.349Z,39.32
2023-04-21T21:55:05.288Z,39.64
2023-04-21T21:58:13.642Z,40.52
2023-04-21T22:01:23.737Z,39.56
2023-04-21T22:04:29.789Z,41.18
2023-04-21T22:07:41.122Z,41.55
2023-04-21T22:10:49.125Z,41.71
2023-04-21T22:13:56.711Z,42.62
2023-04-21T22:17:03.770Z,43.67
2023-04-21T22:20:12.455Z,44.34
2023-04-21T22:23:22.900Z,44.96
2023-04-21T22:26:29.646Z,46.50
2023-04-21T22:29:35.723Z,48.11
2023-04-21T22:32:42.709Z,46.90
2023-04-21T22:35:48.724Z,45.94
2023-04-21T22:38:58.161Z,46.88
2023-04-21T22:42:04.120Z,46.55
2023-04-21T22:45:18.676Z,48.05
2023-04-21T22:48:26.461Z,49.53
2023-04-21T22:51:33.327Z,49.45
2023-04-21T22:54:42.823Z,48.67
2023-04-21T22:57:50.062Z,49.25
2023-04-21T23:00:56.472Z,48.90
2023-04-21T23:04:05.055Z,48.22
2023-04-21T23:07:10.994Z,48.50
2023-04-21T23:10:20.755Z,48.04
2023-04-21T23:13:26.650Z,49.07
2023-04-21T23:16:33.468Z,49.52
2023-04-21T23:19:39.688Z,49.51
2023-04-21T23:22:47.679Z,47.50
2023-04-21T23:25:56.269Z,48.44
2023-04-21T23:29:05.421Z,50.12
2023-04-21T23:32:11.461Z,51.52
2023-04-21T23:35:18.113Z,52.49
2023-04-21T23:38:24.081Z,52.44
2023-04-21T23:41:33.776Z,52.02
2023-04-21T23:44:40.632Z,52.16
2023-04-21T23:47:48.217Z,52.15
2023-04-21T23:50:54.169Z,52.48
2023-04-21T23:54:01.954Z,52.50
2023-04-21T23:57:10.623Z,52.73
